Vaasa Airport, Finland

5:40 PM EET on December 29, 2014 (GMT +0200)
Vaasa | Change Station
CLOSE
Current Station
Airport
Location: Vaasa Airport,
Elevation: 13 ft
Nearby Weather Stations

Elev 13 ft 63.05 °N, 21.76 °E | Updated 20 minutes ago

Mostly Cloudy
Mostly Cloudy
19 °F
Feels Like 8 °F
N
10
Wind Variable Wind from South

Today
High -- | Low -- °F
--% Chance of Precip.
Yesterday
High -- | Low -- °F
Precip. -- in
10:10 AM 2:59 PM
First Quarter, 60% visible
Pressure 30.09 in
Visibility 6.2 miles
Clouds Mostly Cloudy 2200 ft
Windchill 8 °F
Dew Point 16 °F
Humidity 86%
Rainfall 0.00 in
Snow Depth Not available.
UV 0 out of 12
Pollen Not available.
Air Quality Not available.
Flu Activity Not available.
METAR EFVA 291520Z AUTO 18009KT 9999 BKN022/// M07/M09 Q1019

More Conditions Fewer Conditions

Pressure 30.09 in
Visibility 6.2 miles
Clouds Mostly Cloudy 2200 ft
Windchill 8 °F
Dew Point 16 °F
Humidity 86%
Rainfall 0.00 in
Snow Depth Not available.
UV 0 out of 12
Pollen Not available.
Air Quality Not available.
Flu Activity Not available.
METAR EFVA 291520Z AUTO 18009KT 9999 BKN022/// M07/M09 Q1019

More Conditions Fewer Conditions

10-Day Weather Forecast

Almanac

Astronomy

Dec. 29, 2014 Rise Set
Actual Time
Civil Twilight
Nautical Twilight
Astronomical Twilight
Moon
Length of Visible Light
Length of Day
Tomorrow will be .
, % of the Moon is Illuminated

Today's Extremes

Country Highs Country Lows

Community

WunderPhotos

Upload Photos

1,781,617 photos uploaded!

WunderBlogs® & News

Nearby

Air Quality

  Air Quality AQ Index Pollutant
Not available.

Snow Depth

Station Depth Elevation

Earthquake Activity

City Distance Mag. Time & Date
Minimum magnitude displayed is 2.5.

Coastal Water Temperatures

Place Temperature

Nearby Weather Stations